createdAt,value
2022-10-06T00:01:42.826Z,12.31
2022-10-06T00:05:10.570Z,12.31
2022-10-06T00:08:40.698Z,12.30
2022-10-06T00:12:09.227Z,12.30
2022-10-06T00:15:38.619Z,12.30
2022-10-06T00:19:06.225Z,12.34
2022-10-06T00:22:48.227Z,12.34
2022-10-06T00:26:18.056Z,12.32
2022-10-06T00:29:45.277Z,12.28
2022-10-06T00:33:16.390Z,12.24
2022-10-06T00:36:44.234Z,12.20
2022-10-06T00:40:14.126Z,12.14
2022-10-06T00:43:46.549Z,12.07
2022-10-06T00:47:13.591Z,12.01
2022-10-06T00:50:42.076Z,11.98
2022-10-06T00:54:12.185Z,11.96
2022-10-06T00:57:42.342Z,11.96
2022-10-06T01:01:10.704Z,11.98
2022-10-06T01:04:42.701Z,11.99
2022-10-06T01:08:10.319Z,12.00
2022-10-06T01:11:38.104Z,12.00
2022-10-06T01:15:05.361Z,12.00
2022-10-06T01:18:34.001Z,11.99
2022-10-06T01:22:19.453Z,11.97
2022-10-06T01:26:02.242Z,11.98
2022-10-06T01:29:29.316Z,12.00
2022-10-06T01:32:56.207Z,11.97
2022-10-06T01:36:23.826Z,12.01
2022-10-06T01:39:51.885Z,12.02
2022-10-06T01:43:18.496Z,12.04
2022-10-06T01:46:45.812Z,12.02
2022-10-06T01:50:13.080Z,11.99
2022-10-06T01:53:39.798Z,11.96
2022-10-06T01:57:09.107Z,11.91
2022-10-06T02:00:35.915Z,11.88
2022-10-06T02:04:03.843Z,11.83
2022-10-06T02:07:30.704Z,11.81
2022-10-06T02:10:57.346Z,11.79
2022-10-06T02:14:26.328Z,11.78
2022-10-06T02:17:54.412Z,11.77
2022-10-06T02:21:26.945Z,11.78
2022-10-06T02:24:54.622Z,11.78
2022-10-06T02:28:22.037Z,11.80
2022-10-06T02:31:49.748Z,11.83
2022-10-06T02:35:17.784Z,11.85
2022-10-06T02:38:45.693Z,11.88
2022-10-06T02:42:13.179Z,11.90
2022-10-06T02:45:40.121Z,11.91
2022-10-06T02:49:07.410Z,11.93
2022-10-06T02:52:43.046Z,11.95
2022-10-06T02:56:13.190Z,11.95
2022-10-06T02:59:39.906Z,11.95
2022-10-06T03:03:06.907Z,11.95
2022-10-06T03:06:34.533Z,11.96
2022-10-06T03:10:21.885Z,11.96
2022-10-06T03:13:50.145Z,11.96
2022-10-06T03:17:17.612Z,11.98
2022-10-06T03:20:49.019Z,11.99
2022-10-06T03:24:16.214Z,12.01
2022-10-06T03:27:45.557Z,12.02
2022-10-06T03:31:13.902Z,12.02
2022-10-06T03:34:40.636Z,12.03
2022-10-06T03:38:11.160Z,12.03
2022-10-06T03:41:40.553Z,12.04
2022-10-06T03:45:11.098Z,12.06
2022-10-06T03:48:38.627Z,12.06
2022-10-06T03:52:09.273Z,12.07
2022-10-06T03:55:38.525Z,12.06
2022-10-06T03:59:08.627Z,12.05
2022-10-06T04:02:36.008Z,12.02
2022-10-06T04:06:04.599Z,11.98
2022-10-06T04:09:37.405Z,11.94
2022-10-06T04:13:05.304Z,11.89
2022-10-06T04:16:36.385Z,11.80
2022-10-06T04:20:06.713Z,11.82
2022-10-06T04:23:34.205Z,11.81
2022-10-06T04:27:15.843Z,11.79
2022-10-06T04:30:44.607Z,11.80
2022-10-06T04:34:15.005Z,11.82
2022-10-06T04:37:43.980Z,11.84
2022-10-06T04:41:12.913Z,11.86
2022-10-06T04:44:39.582Z,11.88
2022-10-06T04:48:10.160Z,11.88
2022-10-06T04:51:37.864Z,11.91
2022-10-06T04:55:06.948Z,11.96
2022-10-06T04:58:40.344Z,11.99
2022-10-06T05:02:13.904Z,12.01
2022-10-06T05:05:42.114Z,12.04
2022-10-06T05:09:11.944Z,12.06
2022-10-06T05:12:44.355Z,12.07
2022-10-06T05:16:14.793Z,12.09
2022-10-06T05:19:43.961Z,12.12
2022-10-06T05:23:11.856Z,12.13
2022-10-06T05:26:40.651Z,12.14
2022-10-06T05:30:13.267Z,12.17
2022-10-06T05:33:40.990Z,12.20
2022-10-06T05:37:08.851Z,12.22
2022-10-06T05:40:35.976Z,12.25
2022-10-06T05:44:03.502Z,12.28
2022-10-06T05:47:31.639Z,12.32
2022-10-06T05:51:06.641Z,12.35
2022-10-06T05:54:35.269Z,12.40
2022-10-06T05:58:03.011Z,12.44
2022-10-06T06:01:32.740Z,12.46
2022-10-06T06:05:01.357Z,12.50
2022-10-06T06:08:28.554Z,12.57
2022-10-06T06:11:55.807Z,12.62
2022-10-06T06:15:59.139Z,12.67
2022-10-06T06:19:29.215Z,12.75
2022-10-06T06:22:57.102Z,12.81
2022-10-06T06:26:28.560Z,12.89
2022-10-06T06:29:57.623Z,12.96
2022-10-06T06:33:25.146Z,13.06
2022-10-06T06:36:56.049Z,13.18
2022-10-06T06:40:23.130Z,13.27
2022-10-06T06:43:53.063Z,13.38
2022-10-06T06:47:36.157Z,13.52
2022-10-06T06:51:05.043Z,13.64
2022-10-06T06:54:32.281Z,13.75
2022-10-06T06:58:07.577Z,13.84
2022-10-06T07:01:34.830Z,13.93
2022-10-06T07:05:01.817Z,14.02
2022-10-06T07:08:33.523Z,14.13
2022-10-06T07:12:00.490Z,14.24
2022-10-06T07:15:44.600Z,14.36
2022-10-06T07:19:31.826Z,14.47
2022-10-06T07:23:15.803Z,14.59
2022-10-06T07:26:43.580Z,14.72
2022-10-06T07:30:13.061Z,14.82
2022-10-06T07:33:41.479Z,14.93
2022-10-06T07:37:09.868Z,15.06
2022-10-06T07:40:40.225Z,15.15
2022-10-06T07:44:19.309Z,15.23
2022-10-06T07:47:49.341Z,15.31
2022-10-06T07:51:19.668Z,15.40
2022-10-06T07:54:50.875Z,15.50
2022-10-06T07:58:41.017Z,15.59
2022-10-06T08:02:10.667Z,15.65
2022-10-06T08:05:49.909Z,15.69
2022-10-06T08:09:18.720Z,15.71
2022-10-06T08:12:48.578Z,15.74
2022-10-06T08:16:18.783Z,15.78
2022-10-06T08:19:48.520Z,15.87
2022-10-06T08:23:17.101Z,15.96
2022-10-06T08:26:47.515Z,16.06
2022-10-06T08:30:17.330Z,16.14
2022-10-06T08:33:45.036Z,16.21
2022-10-06T08:37:20.482Z,16.25
2022-10-06T08:40:48.879Z,16.30
2022-10-06T08:44:31.570Z,16.36
2022-10-06T08:48:06.092Z,16.47
2022-10-06T08:51:51.408Z,16.59
2022-10-06T08:55:39.188Z,16.68
2022-10-06T08:59:10.380Z,16.73
2022-10-06T09:02:42.449Z,16.79
2022-10-06T09:06:18.348Z,16.85
2022-10-06T09:09:58.739Z,16.90
2022-10-06T09:13:31.006Z,17.02
2022-10-06T09:17:04.045Z,17.02
2022-10-06T09:20:31.983Z,16.98
2022-10-06T09:24:06.237Z,16.98
2022-10-06T09:27:39.543Z,17.09
2022-10-06T09:31:18.559Z,17.22
2022-10-06T09:34:50.176Z,17.42
2022-10-06T09:38:17.030Z,17.58
2022-10-06T09:41:47.289Z,17.59
2022-10-06T09:45:29.655Z,17.54
2022-10-06T09:49:24.265Z,17.46
2022-10-06T09:53:17.666Z,17.40
2022-10-06T09:56:48.423Z,17.32
2022-10-06T10:07:41.991Z,17.54
2022-10-06T10:11:40.204Z,17.53
2022-10-06T10:15:26.173Z,17.55
2022-10-06T10:18:53.974Z,17.53
2022-10-06T10:22:25.918Z,17.52
2022-10-06T10:26:05.703Z,17.53
2022-10-06T10:30:08.362Z,17.45
2022-10-06T10:33:49.669Z,17.52
2022-10-06T10:37:32.376Z,17.79
2022-10-06T10:41:10.178Z,18.04
2022-10-06T10:44:44.756Z,18.24
2022-10-06T10:48:19.238Z,18.46
2022-10-06T10:51:51.242Z,18.67
2022-10-06T10:55:29.982Z,18.79
2022-10-06T10:59:04.421Z,18.86
2022-10-06T11:02:31.721Z,18.93
2022-10-06T11:06:34.546Z,19.02
2022-10-06T11:10:04.657Z,19.09
2022-10-06T11:13:40.180Z,19.14
2022-10-06T11:17:15.792Z,19.19
2022-10-06T11:20:49.973Z,19.23
2022-10-06T11:24:21.182Z,19.33
2022-10-06T11:27:56.762Z,19.48
2022-10-06T11:31:34.503Z,19.48
2022-10-06T11:35:02.331Z,19.45
2022-10-06T11:38:40.589Z,19.45
2022-10-06T11:42:17.441Z,19.54
2022-10-06T11:45:52.754Z,19.65
2022-10-06T11:49:52.292Z,19.81
2022-10-06T11:53:38.340Z,19.90
2022-10-06T11:57:05.346Z,19.80
2022-10-06T12:00:49.985Z,19.93
2022-10-06T12:04:23.536Z,20.05
2022-10-06T12:08:16.987Z,20.17
2022-10-06T12:11:45.618Z,20.32
2022-10-06T12:19:23.560Z,20.47
2022-10-06T12:22:56.695Z,20.58
2022-10-06T12:26:36.326Z,20.70
2022-10-06T12:30:16.360Z,20.84
2022-10-06T12:33:44.766Z,21.00
2022-10-06T12:37:44.308Z,21.03
2022-10-06T12:41:15.279Z,21.09
2022-10-06T12:44:49.246Z,21.17
2022-10-06T12:48:24.635Z,21.34
2022-10-06T12:51:57.700Z,21.54
2022-10-06T12:55:49.528Z,21.54
2022-10-06T12:59:26.370Z,21.11
2022-10-06T13:02:56.235Z,20.71
2022-10-06T13:06:25.943Z,20.40
2022-10-06T13:09:54.796Z,20.16
2022-10-06T13:13:26.701Z,19.91
2022-10-06T13:16:53.809Z,19.89
2022-10-06T13:20:37.575Z,20.16
2022-10-06T13:24:05.919Z,20.50
2022-10-06T13:27:33.159Z,20.82
2022-10-06T13:31:04.907Z,21.14
2022-10-06T13:34:42.318Z,21.36
2022-10-06T13:38:13.927Z,21.41
2022-10-06T13:41:47.434Z,21.22
2022-10-06T13:45:17.967Z,21.30
2022-10-06T13:48:51.153Z,21.42
2022-10-06T13:52:18.830Z,21.43
2022-10-06T13:55:52.336Z,21.39
2022-10-06T13:59:37.475Z,21.36
2022-10-06T14:03:22.156Z,21.28
2022-10-06T14:06:55.618Z,21.11
2022-10-06T14:10:22.869Z,20.95
2022-10-06T14:13:56.102Z,20.78
2022-10-06T14:17:24.642Z,20.64
2022-10-06T14:20:53.536Z,20.54
2022-10-06T14:24:28.697Z,20.45
2022-10-06T14:27:55.956Z,20.37
2022-10-06T14:31:24.036Z,20.27
2022-10-06T14:34:50.955Z,20.14
2022-10-06T14:38:19.198Z,20.02
2022-10-06T14:41:47.346Z,19.91
2022-10-06T14:45:19.770Z,19.78
2022-10-06T14:48:47.489Z,19.60
2022-10-06T14:52:14.774Z,19.40
2022-10-06T14:55:41.773Z,19.22
2022-10-06T14:59:10.466Z,19.04
2022-10-06T15:02:38.607Z,18.83
2022-10-06T15:06:26.003Z,18.66
2022-10-06T15:09:53.281Z,18.49
2022-10-06T15:13:22.221Z,18.34
2022-10-06T15:16:50.976Z,18.19
2022-10-06T15:20:18.691Z,18.06
2022-10-06T15:23:46.566Z,17.93
2022-10-06T15:27:33.440Z,17.82
2022-10-06T15:31:01.216Z,17.71
2022-10-06T15:34:33.791Z,17.59
2022-10-06T15:38:01.000Z,17.48
2022-10-06T15:41:29.111Z,17.34
2022-10-06T15:44:56.485Z,17.23
2022-10-06T15:48:25.337Z,17.13
2022-10-06T15:51:57.549Z,17.04
2022-10-06T15:55:24.685Z,16.95
2022-10-06T15:58:52.269Z,16.86
2022-10-06T16:02:21.208Z,16.76
2022-10-06T16:05:52.206Z,16.63
2022-10-06T16:09:20.489Z,16.50
2022-10-06T16:12:47.789Z,16.40
2022-10-06T16:16:20.235Z,16.28
2022-10-06T16:19:47.695Z,16.15
2022-10-06T16:23:25.450Z,16.02
2022-10-06T16:26:56.526Z,15.90
2022-10-06T16:30:23.534Z,15.78
2022-10-06T16:33:51.925Z,15.67
2022-10-06T16:37:18.654Z,15.57
2022-10-06T16:40:46.270Z,15.47
2022-10-06T16:44:12.989Z,15.37
2022-10-06T16:47:40.867Z,15.27
2022-10-06T16:51:10.885Z,15.16
2022-10-06T16:54:37.569Z,15.04
2022-10-06T16:58:04.411Z,14.92
2022-10-06T17:01:32.847Z,14.80
2022-10-06T17:05:00.275Z,14.68
2022-10-06T17:08:26.906Z,14.57
2022-10-06T17:11:56.050Z,14.46
2022-10-06T17:15:24.065Z,14.34
2022-10-06T17:18:52.804Z,14.25
2022-10-06T17:22:19.617Z,14.15
2022-10-06T17:25:47.542Z,14.05
2022-10-06T17:29:19.090Z,13.95
2022-10-06T17:32:47.346Z,13.85
2022-10-06T17:36:16.896Z,13.76
2022-10-06T17:39:47.141Z,13.68
2022-10-06T17:43:14.183Z,13.59
2022-10-06T17:46:48.066Z,13.50
2022-10-06T17:50:17.353Z,13.42
2022-10-06T17:53:46.713Z,13.36
2022-10-06T17:57:14.396Z,13.28
2022-10-06T18:00:42.805Z,13.20
2022-10-06T18:04:14.678Z,13.13
2022-10-06T18:07:43.716Z,13.06
2022-10-06T18:11:41.883Z,13.00
2022-10-06T18:15:12.612Z,12.95
2022-10-06T18:18:44.052Z,12.93
2022-10-06T18:22:13.935Z,12.91
2022-10-06T18:25:40.994Z,12.88
2022-10-06T18:29:08.081Z,12.84
2022-10-06T18:34:36.666Z,12.81
2022-10-06T18:36:24.155Z,12.75
2022-10-06T18:39:51.075Z,12.68
2022-10-06T18:43:18.324Z,12.61
2022-10-06T18:47:14.414Z,12.54
2022-10-06T18:50:42.120Z,12.45
2022-10-06T18:54:11.762Z,12.37
2022-10-06T18:57:41.402Z,12.29
2022-10-06T19:01:09.454Z,12.22
2022-10-06T19:04:38.026Z,12.15
2022-10-06T19:08:08.324Z,12.05
2022-10-06T19:11:46.319Z,11.99
2022-10-06T19:15:20.326Z,11.93
2022-10-06T19:18:48.533Z,11.88
2022-10-06T19:22:24.871Z,11.86
2022-10-06T19:25:59.950Z,11.83
2022-10-06T19:29:28.264Z,11.81
2022-10-06T19:32:55.304Z,11.80
2022-10-06T19:36:22.179Z,11.79
2022-10-06T19:39:50.486Z,11.76
2022-10-06T19:43:19.570Z,11.70
2022-10-06T19:46:46.980Z,11.62
2022-10-06T19:50:13.918Z,11.53
2022-10-06T19:53:41.727Z,11.45
2022-10-06T19:57:12.467Z,11.38
2022-10-06T20:00:46.201Z,11.30
2022-10-06T20:04:25.256Z,11.20
2022-10-06T20:07:53.796Z,11.10
2022-10-06T20:11:25.707Z,11.01
2022-10-06T20:14:56.814Z,10.92
2022-10-06T20:18:26.494Z,10.85
2022-10-06T20:22:09.620Z,10.80
2022-10-06T20:25:41.287Z,10.77
2022-10-06T20:29:13.603Z,10.74
2022-10-06T20:32:40.685Z,10.72
2022-10-06T20:36:10.494Z,10.73
2022-10-06T20:39:58.150Z,10.72
2022-10-06T20:43:25.788Z,10.68
2022-10-06T20:46:55.799Z,10.64
2022-10-06T20:50:22.731Z,10.58
2022-10-06T20:53:50.135Z,10.54
2022-10-06T20:57:17.129Z,10.50
2022-10-06T21:00:43.849Z,10.46
2022-10-06T21:04:12.012Z,10.39
2022-10-06T21:07:39.971Z,10.31
2022-10-06T21:11:08.112Z,10.24
2022-10-06T21:14:42.607Z,10.18
2022-10-06T21:18:11.305Z,10.10
2022-10-06T21:21:38.647Z,10.03
2022-10-06T21:25:06.321Z,9.99
2022-10-06T21:28:34.643Z,9.95
2022-10-06T21:32:02.299Z,9.93
2022-10-06T21:35:29.577Z,9.91
2022-10-06T21:39:00.903Z,9.90
2022-10-06T21:42:27.636Z,9.91
2022-10-06T21:46:23.973Z,9.91
2022-10-06T21:49:44.894Z,9.90
2022-10-06T21:53:12.062Z,9.90
2022-10-06T21:56:40.448Z,9.86
2022-10-06T22:00:11.413Z,9.82
2022-10-06T22:03:41.229Z,9.78
2022-10-06T22:07:08.468Z,9.74
2022-10-06T22:10:35.847Z,9.68
2022-10-06T22:14:07.073Z,9.63
2022-10-06T22:17:34.956Z,9.55
2022-10-06T22:21:02.633Z,9.47
2022-10-06T22:24:29.678Z,9.41
2022-10-06T22:27:57.337Z,9.37
2022-10-06T22:31:30.303Z,9.34
2022-10-06T22:34:58.508Z,9.31
2022-10-06T22:38:28.024Z,9.30
2022-10-06T22:41:55.512Z,9.31
2022-10-06T22:45:22.241Z,9.32
2022-10-06T22:48:49.484Z,9.34
2022-10-06T22:52:16.152Z,9.31
2022-10-06T22:55:43.186Z,9.30
2022-10-06T22:59:10.194Z,9.29
2022-10-06T23:02:36.773Z,9.27
2022-10-06T23:06:04.252Z,9.22
2022-10-06T23:09:31.197Z,9.17
2022-10-06T23:13:02.165Z,9.11
2022-10-06T23:16:28.878Z,9.01
2022-10-06T23:19:57.320Z,8.93
2022-10-06T23:23:24.481Z,8.83
2022-10-06T23:26:52.627Z,8.75
2022-10-06T23:30:19.890Z,8.71
2022-10-06T23:33:46.956Z,8.67
2022-10-06T23:37:14.102Z,8.65
2022-10-06T23:40:41.050Z,8.65
2022-10-06T23:44:07.686Z,8.64
2022-10-06T23:47:34.503Z,8.64
2022-10-06T23:51:03.776Z,8.65
2022-10-06T23:54:32.029Z,8.66
2022-10-06T23:57:58.732Z,8.66
